Time;durP1;ratioP1;P1;durP2;ratioP2;P2;SDS_P1;SDS_P2;PMS_P1;PMS_P2;Temp;Humidity;BMP_temperature;BMP_pressure;BME280_temperature;BME280_humidity;BME280_pressure;Samples;Min_cycle;Max_cycle;Signal;HPM_P1;HPM_P2
2022/05/28 00:00:59;;;;;;;0.00;0.00;;;12.00;99.90;;;;;;5051456;28;20192;-84
2022/05/28 00:03:27;;;;;;;0.10;0.10;;;12.10;99.90;;;;;;5035918;28;20185;-85
2022/05/28 00:05:52;;;;;;;0.00;0.00;;;12.00;99.90;;;;;;5034409;28;20192;-85
2022/05/28 00:08:18;;;;;;;0.27;0.27;;;12.00;99.90;;;;;;5037426;28;20207;-85
2022/05/28 00:10:45;;;;;;;0.13;0.13;;;12.10;99.90;;;;;;5038367;28;20651;-84
2022/05/28 00:13:11;;;;;;;0.10;0.10;;;12.20;99.90;;;;;;5055057;28;20209;-84
2022/05/28 00:15:37;;;;;;;0.10;0.10;;;12.20;99.90;;;;;;5038648;28;20181;-84
2022/05/28 00:18:03;;;;;;;0.23;0.20;;;12.20;99.90;;;;;;5038146;28;20200;-84
2022/05/28 00:20:28;;;;;;;0.77;0.57;;;12.10;99.90;;;;;;5038035;28;20188;-85
2022/05/28 00:22:54;;;;;;;0.77;0.40;;;12.20;99.90;;;;;;5068089;28;20188;-85
2022/05/28 00:25:21;;;;;;;0.60;0.60;;;12.20;99.90;;;;;;5040079;28;20307;-84
2022/05/28 00:27:46;;;;;;;1.97;0.47;;;12.20;99.90;;;;;;5037243;28;20212;-84
2022/05/28 00:30:16;;;;;;;0.17;0.17;;;12.00;99.90;;;;;;5038496;28;20250;-84
2022/05/28 00:32:42;;;;;;;0.10;0.10;;;12.00;99.90;;;;;;5039422;28;20178;-85
2022/05/28 00:35:12;;;;;;;0.10;0.10;;;11.90;99.90;;;;;;5039144;28;20312;-84
2022/05/28 00:37:37;;;;;;;0.10;0.10;;;11.90;99.90;;;;;;5057509;28;20217;-85
2022/05/28 00:40:06;;;;;;;0.10;0.10;;;11.90;99.90;;;;;;5039173;28;20956;-84
2022/05/28 00:42:31;;;;;;;0.10;0.10;;;12.00;99.90;;;;;;5053090;28;20189;-84
2022/05/28 00:44:57;;;;;;;0.20;0.20;;;11.90;99.90;;;;;;5056319;28;20209;-85
2022/05/28 00:47:24;;;;;;;0.10;0.10;;;11.70;99.90;;;;;;5037449;28;20517;-84
2022/05/28 00:49:51;;;;;;;0.10;0.10;;;11.60;99.90;;;;;;5055160;28;20177;-85
2022/05/28 00:52:18;;;;;;;0.10;0.10;;;11.70;99.90;;;;;;5054254;28;20208;-85
2022/05/28 00:54:46;;;;;;;0.10;0.10;;;11.70;99.90;;;;;;5037974;28;20276;-84
2022/05/28 00:57:14;;;;;;;0.10;0.10;;;11.70;99.90;;;;;;5037984;28;20193;-85
2022/05/28 00:59:40;;;;;;;0.10;0.10;;;11.70;99.90;;;;;;5035759;28;20624;-84
2022/05/28 01:02:48;;;;;;;0.33;0.20;;;11.80;99.90;;;;;;5055328;28;20188;-84
2022/05/28 01:05:33;;;;;;;0.10;0.10;;;11.70;99.90;;;;;;5044752;28;20222;-85
2022/05/28 01:08:10;;;;;;;0.03;0.03;;;11.80;99.90;;;;;;5053806;28;20632;-85
2022/05/28 01:10:55;;;;;;;0.10;0.10;;;11.60;99.90;;;;;;5054210;28;20177;-85
2022/05/28 01:13:26;;;;;;;0.10;0.10;;;11.70;99.90;;;;;;5036805;28;20232;-84
2022/05/28 01:16:05;;;;;;;0.10;0.10;;;11.70;99.90;;;;;;5033021;28;20180;-84
2022/05/28 01:18:42;;;;;;;0.43;0.37;;;11.70;99.90;;;;;;5056293;28;20197;-84
2022/05/28 01:21:13;;;;;;;0.10;0.10;;;11.70;99.90;;;;;;5069271;28;20173;-85
2022/05/28 01:24:06;;;;;;;0.10;0.10;;;11.50;99.90;;;;;;5038703;28;20585;-84
2022/05/28 01:26:59;;;;;;;2.03;0.33;;;11.50;99.90;;;;;;5069680;28;20294;-85
2022/05/28 01:29:29;;;;;;;0.13;0.13;;;11.50;99.90;;;;;;5038932;28;20205;-85
2022/05/28 01:31:57;;;;;;;0.43;0.43;;;11.50;99.90;;;;;;5037923;28;20644;-85
2022/05/28 01:34:24;;;;;;;0.10;0.10;;;11.40;99.90;;;;;;5053841;28;20189;-84
2022/05/28 01:36:50;;;;;;;0.10;0.10;;;11.40;99.90;;;;;;5036755;28;20181;-84
2022/05/28 01:39:18;;;;;;;0.33;0.33;;;11.40;99.90;;;;;;5055361;28;20209;-85
2022/05/28 01:41:46;;;;;;;0.40;0.20;;;11.30;99.90;;;;;;5036942;28;20184;-85
2022/05/28 01:44:15;;;;;;;0.10;0.10;;;11.30;99.90;;;;;;5037899;28;20213;-84
2022/05/28 01:46:42;;;;;;;0.00;0.00;;;11.40;99.90;;;;;;5036826;28;20296;-85
2022/05/28 01:49:11;;;;;;;0.10;0.10;;;11.40;99.90;;;;;;5038076;28;20197;-84
2022/05/28 01:51:40;;;;;;;0.10;0.10;;;11.30;99.90;;;;;;5038282;28;21082;-84
2022/05/28 01:54:08;;;;;;;0.30;0.30;;;11.10;99.90;;;;;;5036112;28;20217;-84
2022/05/28 01:56:42;;;;;;;0.10;0.10;;;11.10;99.90;;;;;;5037647;28;20188;-85
2022/05/28 01:59:08;;;;;;;0.57;0.57;;;11.10;99.90;;;;;;5036342;28;20694;-84
2022/05/28 02:01:33;;;;;;;0.50;0.40;;;11.20;99.90;;;;;;5036525;28;20272;-85
2022/05/28 02:04:04;;;;;;;0.10;0.10;;;11.20;99.90;;;;;;5052249;28;20288;-84
2022/05/28 02:06:30;;;;;;;0.30;0.30;;;11.10;99.90;;;;;;5037978;28;20272;-85
2022/05/28 02:08:56;;;;;;;0.60;0.10;;;11.20;99.90;;;;;;5052761;28;20227;-84
2022/05/28 02:11:26;;;;;;;0.10;0.10;;;11.10;99.90;;;;;;5037319;28;20188;-85
2022/05/28 02:14:13;;;;;;;0.30;0.30;;;11.00;99.90;;;;;;5033270;28;20182;-84
2022/05/28 02:16:57;;;;;;;4.43;0.30;;;11.00;99.90;;;;;;5038294;28;20655;-85
2022/05/28 02:19:42;;;;;;;0.20;0.20;;;11.00;99.90;;;;;;5052244;28;20209;-85
2022/05/28 02:22:17;;;;;;;0.30;0.20;;;11.00;99.90;;;;;;5036778;28;20722;-85
2022/05/28 02:24:49;;;;;;;0.10;0.10;;;10.80;99.90;;;;;;5052286;28;20200;-84
2022/05/28 02:27:18;;;;;;;0.20;0.20;;;10.60;99.90;;;;;;5036090;28;20192;-84
2022/05/28 02:29:44;;;;;;;0.10;0.10;;;10.50;99.90;;;;;;5054431;28;20185;-84
2022/05/28 02:32:14;;;;;;;0.37;0.37;;;10.50;99.90;;;;;;5053762;28;20558;-84
2022/05/28 02:34:40;;;;;;;0.10;0.10;;;10.60;99.90;;;;;;5036646;28;20269;-84
2022/05/28 02:37:07;;;;;;;0.10;0.10;;;10.70;99.90;;;;;;5034361;28;20286;-84
2022/05/28 02:39:32;;;;;;;0.13;0.13;;;10.70;99.90;;;;;;5036479;28;20272;-84
2022/05/28 02:41:58;;;;;;;0.07;0.07;;;10.70;99.90;;;;;;5035870;28;20194;-84
2022/05/28 02:44:24;;;;;;;2.97;0.57;;;10.70;99.90;;;;;;5054617;28;20364;-84
2022/05/28 02:46:49;;;;;;;0.10;0.10;;;10.80;99.90;;;;;;5054369;28;20191;-83
2022/05/28 02:49:15;;;;;;;0.10;0.10;;;10.80;99.90;;;;;;5054074;28;20216;-84
2022/05/28 02:51:41;;;;;;;0.00;0.00;;;10.70;99.90;;;;;;5067480;28;20177;-84
2022/05/28 02:54:06;;;;;;;0.10;0.10;;;10.80;99.90;;;;;;5036563;28;20673;-84
2022/05/28 02:56:32;;;;;;;0.63;0.43;;;10.80;99.90;;;;;;5036181;28;20259;-84
2022/05/28 02:58:58;;;;;;;0.00;0.00;;;10.80;99.90;;;;;;5037039;28;20589;-84
2022/05/28 03:01:29;;;;;;;0.27;0.27;;;10.80;99.90;;;;;;5051449;28;20588;-84
2022/05/28 03:03:55;;;;;;;0.10;0.10;;;10.70;99.90;;;;;;5053845;28;20213;-84
2022/05/28 03:06:21;;;;;;;0.10;0.10;;;10.70;99.90;;;;;;5035144;28;20177;-83
2022/05/28 03:08:47;;;;;;;0.10;0.10;;;10.70;99.90;;;;;;5053301;28;20588;-84
2022/05/28 03:11:13;;;;;;;0.20;0.20;;;10.70;99.90;;;;;;5035513;28;20185;-84
2022/05/28 03:13:40;;;;;;;0.07;0.07;;;10.80;99.90;;;;;;5034948;28;20670;-84
2022/05/28 03:16:06;;;;;;;0.00;0.00;;;10.70;99.90;;;;;;5054044;28;20232;-84
2022/05/28 03:18:31;;;;;;;0.67;0.30;;;10.70;99.90;;;;;;5052898;28;20228;-84
2022/05/28 03:20:57;;;;;;;0.40;0.40;;;10.80;99.90;;;;;;5052873;28;20216;-84
2022/05/28 03:23:23;;;;;;;0.20;0.20;;;10.80;99.90;;;;;;5052866;28;20202;-84
2022/05/28 03:25:48;;;;;;;0.10;0.10;;;10.80;99.90;;;;;;5054147;28;20211;-83
2022/05/28 03:28:14;;;;;;;0.30;0.30;;;10.80;99.90;;;;;;5037254;28;20204;-84
2022/05/28 03:30:40;;;;;;;0.10;0.10;;;10.80;99.90;;;;;;5036674;28;20195;-84
2022/05/28 03:33:05;;;;;;;3.00;0.20;;;10.80;99.90;;;;;;5053036;28;20185;-84
2022/05/28 03:35:31;;;;;;;0.10;0.10;;;10.80;99.90;;;;;;5052621;28;20185;-84
2022/05/28 03:37:57;;;;;;;0.10;0.10;;;10.80;99.90;;;;;;5034703;28;20617;-83
2022/05/28 03:40:22;;;;;;;0.20;0.20;;;10.90;99.90;;;;;;5036961;28;20239;-82
2022/05/28 03:42:48;;;;;;;0.00;0.00;;;11.00;99.90;;;;;;5060663;28;20260;-81
2022/05/28 03:45:13;;;;;;;0.20;0.20;;;11.40;99.90;;;;;;5043654;28;20220;-82
2022/05/28 03:47:39;;;;;;;0.37;0.33;;;12.10;99.90;;;;;;5043024;28;20215;-82
2022/05/28 03:50:05;;;;;;;0.00;0.00;;;12.60;99.90;;;;;;5054187;28;20265;-81
2022/05/28 03:52:32;;;;;;;0.23;0.23;;;13.30;99.90;;;;;;5036786;28;20203;-81
2022/05/28 03:54:57;;;;;;;0.10;0.10;;;13.90;99.90;;;;;;5033122;28;20189;-81
2022/05/28 03:57:29;;;;;;;0.10;0.10;;;14.40;99.90;;;;;;5039478;28;20677;-81
2022/05/28 03:59:56;;;;;;;0.10;0.10;;;15.00;99.90;;;;;;5037480;28;20193;-81
2022/05/28 04:02:22;;;;;;;0.00;0.00;;;15.60;99.90;;;;;;5069283;28;20375;-81
2022/05/28 04:04:48;;;;;;;0.20;0.20;;;16.00;99.90;;;;;;5053183;28;20323;-81
2022/05/28 04:07:14;;;;;;;0.10;0.10;;;16.50;99.90;;;;;;5035929;28;20209;-82
2022/05/28 04:09:40;;;;;;;0.93;0.80;;;16.70;99.90;;;;;;5066430;28;20246;-81
2022/05/28 04:12:06;;;;;;;0.00;0.00;;;17.20;99.90;;;;;;5038148;28;20204;-84
2022/05/28 04:14:32;;;;;;;0.10;0.10;;;17.30;99.90;;;;;;5053777;28;20192;-84
2022/05/28 04:16:57;;;;;;;0.80;0.80;;;17.10;99.90;;;;;;5035796;28;20185;-84
2022/05/28 04:19:23;;;;;;;0.00;0.00;;;16.30;99.90;;;;;;5033216;28;20242;-84
2022/05/28 04:21:48;;;;;;;0.10;0.10;;;15.70;99.90;;;;;;5036545;28;20276;-84
2022/05/28 04:24:14;;;;;;;0.10;0.10;;;15.40;99.90;;;;;;5052159;28;20927;-84
2022/05/28 04:26:40;;;;;;;0.10;0.10;;;15.00;99.90;;;;;;5035364;28;20219;-84
2022/05/28 04:29:07;;;;;;;0.30;0.30;;;14.80;99.90;;;;;;5051928;28;20209;-84
2022/05/28 04:31:33;;;;;;;0.20;0.20;;;14.50;99.90;;;;;;5034479;28;20235;-84
2022/05/28 04:33:59;;;;;;;0.10;0.10;;;14.30;99.90;;;;;;5035263;28;20205;-84
2022/05/28 04:36:24;;;;;;;0.07;0.07;;;14.20;99.90;;;;;;5030112;28;20251;-84
2022/05/28 04:38:50;;;;;;;1.03;0.87;;;14.10;99.90;;;;;;5052556;28;20241;-84
2022/05/28 04:41:15;;;;;;;0.20;0.20;;;14.10;99.90;;;;;;5051184;28;20269;-84
2022/05/28 04:43:41;;;;;;;0.77;0.77;;;14.00;99.90;;;;;;5033547;28;20660;-84
2022/05/28 04:46:07;;;;;;;0.10;0.10;;;13.90;99.90;;;;;;5041769;28;20560;-84
2022/05/28 04:48:33;;;;;;;0.00;0.00;;;13.60;99.90;;;;;;5041374;28;20546;-84
2022/05/28 04:50:59;;;;;;;0.10;0.10;;;13.40;99.90;;;;;;5056002;28;20195;-84
2022/05/28 04:53:25;;;;;;;0.10;0.10;;;13.20;99.90;;;;;;5037158;28;20204;-84
2022/05/28 04:55:51;;;;;;;0.10;0.10;;;13.10;99.90;;;;;;5060090;28;20643;-84
2022/05/28 04:58:17;;;;;;;0.37;0.37;;;13.10;99.90;;;;;;5058048;28;20214;-84
2022/05/28 05:00:45;;;;;;;0.20;0.20;;;13.10;99.90;;;;;;5038189;28;20635;-84
2022/05/28 05:03:11;;;;;;;0.10;0.10;;;13.10;99.90;;;;;;5058732;28;20681;-84
2022/05/28 05:05:37;;;;;;;0.00;0.00;;;13.10;99.90;;;;;;5059881;28;20286;-83
2022/05/28 05:08:03;;;;;;;0.10;0.10;;;13.20;99.90;;;;;;5072590;28;20279;-84
2022/05/28 05:10:29;;;;;;;0.00;0.00;;;13.20;99.90;;;;;;5038992;28;20213;-84
2022/05/28 05:12:54;;;;;;;0.23;0.23;;;13.20;99.90;;;;;;5073467;28;20721;-84
2022/05/28 05:15:20;;;;;;;0.10;0.10;;;13.20;99.90;;;;;;5037491;28;20185;-84
2022/05/28 05:17:45;;;;;;;0.23;0.23;;;13.30;99.90;;;;;;5055864;28;20205;-84
2022/05/28 05:20:12;;;;;;;0.10;0.10;;;13.30;99.90;;;;;;5037623;28;20608;-83
2022/05/28 05:22:38;;;;;;;0.40;0.23;;;13.40;99.90;;;;;;5036506;28;20194;-83
2022/05/28 05:25:04;;;;;;;0.10;0.10;;;13.40;99.90;;;;;;5035968;28;20202;-83
2022/05/28 05:27:29;;;;;;;0.17;0.17;;;13.60;99.90;;;;;;5037147;28;20186;-82
2022/05/28 05:29:59;;;;;;;0.13;0.10;;;13.60;99.90;;;;;;5039222;28;20719;-82
2022/05/28 05:32:26;;;;;;;0.40;0.40;;;13.60;99.90;;;;;;5055660;28;20253;-82
2022/05/28 05:34:52;;;;;;;0.10;0.10;;;13.50;99.90;;;;;;5038415;28;20197;-82
2022/05/28 05:37:18;;;;;;;0.10;0.10;;;13.50;99.90;;;;;;5038548;28;20738;-82
2022/05/28 05:39:44;;;;;;;0.10;0.10;;;13.70;99.90;;;;;;5058518;28;20600;-83
2022/05/28 05:42:10;;;;;;;0.10;0.10;;;13.70;99.90;;;;;;5037508;28;20259;-79
2022/05/28 05:44:36;;;;;;;0.30;0.30;;;13.70;99.90;;;;;;5037652;28;20562;-80
2022/05/28 05:47:02;;;;;;;1.30;0.30;;;13.60;99.90;;;;;;5050409;28;20186;-80
2022/05/28 05:49:27;;;;;;;0.27;0.13;;;13.60;99.90;;;;;;5037189;28;20230;-81
2022/05/28 05:51:55;;;;;;;0.10;0.10;;;13.60;99.90;;;;;;5055737;28;20195;-80
2022/05/28 05:54:21;;;;;;;0.20;0.20;;;13.60;99.90;;;;;;5071323;28;20190;-81
2022/05/28 05:56:46;;;;;;;0.10;0.10;;;13.70;99.90;;;;;;5039784;28;20185;-81
2022/05/28 05:59:12;;;;;;;0.23;0.23;;;13.80;99.90;;;;;;5054808;28;20218;-81
2022/05/28 06:01:38;;;;;;;0.10;0.10;;;13.90;99.90;;;;;;5040669;28;20223;-81
2022/05/28 06:04:04;;;;;;;0.10;0.10;;;13.90;99.90;;;;;;5035860;28;20228;-81
2022/05/28 06:06:30;;;;;;;0.10;0.10;;;13.80;99.90;;;;;;5057441;28;20242;-80
2022/05/28 06:08:55;;;;;;;0.10;0.10;;;13.90;99.90;;;;;;5036173;28;20251;-81
2022/05/28 06:11:21;;;;;;;0.30;0.30;;;14.00;99.90;;;;;;5037756;28;20187;-81
2022/05/28 06:13:47;;;;;;;0.30;0.30;;;14.00;99.90;;;;;;5056538;28;20196;-81
2022/05/28 06:16:13;;;;;;;1.80;0.53;;;14.10;99.90;;;;;;5057804;28;20190;-81
2022/05/28 06:18:39;;;;;;;1.50;0.30;;;14.00;99.90;;;;;;5038349;28;20228;-81
2022/05/28 06:21:04;;;;;;;0.13;0.13;;;14.00;99.90;;;;;;5038585;28;20196;-81
2022/05/28 06:23:30;;;;;;;0.20;0.20;;;14.10;99.90;;;;;;5057251;28;20191;-81
2022/05/28 06:25:56;;;;;;;0.23;0.23;;;14.20;99.90;;;;;;5056193;28;20219;-81
2022/05/28 06:28:22;;;;;;;0.20;0.20;;;14.20;99.90;;;;;;5053810;28;20213;-81
2022/05/28 06:30:49;;;;;;;0.10;0.10;;;14.20;99.90;;;;;;5055191;28;20195;-80
2022/05/28 06:33:15;;;;;;;0.10;0.10;;;14.40;99.90;;;;;;5055847;28;20191;-81
2022/05/28 06:35:41;;;;;;;0.10;0.10;;;14.60;99.90;;;;;;5037755;28;20209;-81
2022/05/28 06:38:07;;;;;;;0.10;0.10;;;14.70;99.90;;;;;;5037113;28;20231;-81
2022/05/28 06:40:35;;;;;;;1.50;0.53;;;14.90;99.90;;;;;;5055265;28;20209;-81
2022/05/28 06:43:01;;;;;;;0.17;0.17;;;15.00;99.90;;;;;;5034038;28;20205;-81
2022/05/28 06:45:26;;;;;;;0.10;0.10;;;15.10;99.90;;;;;;5037124;28;20317;-81
2022/05/28 06:47:52;;;;;;;0.10;0.10;;;15.40;99.90;;;;;;5054240;28;20208;-81
2022/05/28 06:53:08;;;;;;;1.73;1.57;;;15.40;99.90;;;;;;5054378;28;20238;-80
2022/05/28 06:55:37;;;;;;;0.10;0.10;;;15.50;99.90;;;;;;5029385;28;20288;-80
2022/05/28 06:58:04;;;;;;;0.27;0.27;;;15.70;99.90;;;;;;5035493;28;20235;-80
2022/05/28 07:00:30;;;;;;;0.77;0.30;;;15.30;99.90;;;;;;5036101;28;20180;-80
2022/05/28 07:02:56;;;;;;;0.20;0.20;;;15.50;99.90;;;;;;5056569;28;20271;-82
2022/05/28 07:05:22;;;;;;;0.87;0.83;;;15.80;99.90;;;;;;5059365;28;20886;-81
2022/05/28 07:07:47;;;;;;;0.00;0.00;;;15.80;99.90;;;;;;5032177;28;20212;-80
2022/05/28 07:10:13;;;;;;;0.30;0.30;;;16.00;99.90;;;;;;5052377;28;20245;-80
2022/05/28 07:12:39;;;;;;;0.23;0.20;;;16.10;99.90;;;;;;5032144;28;20184;-82
2022/05/28 07:15:05;;;;;;;0.10;0.10;;;16.10;99.90;;;;;;5049935;28;20193;-80
2022/05/28 07:17:30;;;;;;;0.10;0.10;;;16.10;99.90;;;;;;5050588;28;20230;-82
2022/05/28 07:19:56;;;;;;;0.60;0.60;;;16.00;99.90;;;;;;5052156;28;20199;-81
2022/05/28 07:22:21;;;;;;;0.20;0.10;;;16.40;99.90;;;;;;5035152;28;20188;-82
2022/05/28 07:24:47;;;;;;;0.10;0.10;;;16.40;99.90;;;;;;5033022;28;20215;-81
2022/05/28 07:27:13;;;;;;;0.37;0.37;;;16.20;99.90;;;;;;5068646;28;20207;-82
2022/05/28 07:29:39;;;;;;;0.17;0.17;;;16.20;99.90;;;;;;5053413;28;20208;-82
2022/05/28 07:32:06;;;;;;;0.10;0.10;;;15.80;99.90;;;;;;5052790;28;20180;-80
2022/05/28 07:34:32;;;;;;;3.10;0.33;;;15.80;99.90;;;;;;5068657;28;20217;-80
2022/05/28 07:36:57;;;;;;;0.40;0.40;;;15.30;99.90;;;;;;5052207;28;20276;-79
2022/05/28 07:39:23;;;;;;;0.17;0.17;;;15.70;99.90;;;;;;5032586;28;20719;-79
2022/05/28 07:41:49;;;;;;;0.20;0.20;;;15.90;99.90;;;;;;5051155;28;20195;-80
2022/05/28 07:44:15;;;;;;;0.10;0.10;;;15.90;99.90;;;;;;5052633;28;20205;-79
2022/05/28 07:46:41;;;;;;;0.57;0.30;;;15.90;99.90;;;;;;5048438;28;20201;-80
2022/05/28 07:49:07;;;;;;;0.33;0.33;;;15.90;99.90;;;;;;5032243;28;20203;-81
2022/05/28 07:51:34;;;;;;;1.87;0.70;;;16.20;99.90;;;;;;5032879;28;20187;-80
2022/05/28 07:53:59;;;;;;;0.10;0.10;;;16.40;99.90;;;;;;5050340;28;20273;-80
2022/05/28 07:56:25;;;;;;;0.10;0.10;;;16.60;99.90;;;;;;5069600;28;20286;-80
2022/05/28 07:58:51;;;;;;;0.17;0.17;;;16.70;99.90;;;;;;5035209;28;20276;-81
2022/05/28 08:01:19;;;;;;;0.40;0.40;;;16.90;99.90;;;;;;5046616;28;20187;-80
2022/05/28 08:03:45;;;;;;;0.20;0.20;;;16.60;99.90;;;;;;5033591;28;20200;-83
2022/05/28 08:06:10;;;;;;;0.33;0.33;;;16.60;99.90;;;;;;5035491;28;20283;-83
2022/05/28 08:08:36;;;;;;;2.93;0.33;;;16.80;99.90;;;;;;5033535;28;20223;-82
2022/05/28 08:11:02;;;;;;;0.20;0.20;;;17.00;99.90;;;;;;5055533;28;20192;-82
2022/05/28 08:13:28;;;;;;;0.77;0.50;;;16.80;99.90;;;;;;5035837;28;20206;-83
2022/05/28 08:15:55;;;;;;;0.20;0.20;;;17.10;99.90;;;;;;5036639;28;20296;-82
2022/05/28 08:18:26;;;;;;;0.30;0.30;;;17.70;99.90;;;;;;5035564;28;20731;-82
2022/05/28 08:23:39;;;;;;;0.60;0.60;;;17.30;99.90;;;;;;5049563;28;20188;-82
2022/05/28 08:26:05;;;;;;;0.30;0.30;;;17.70;99.90;;;;;;5051725;28;20185;-82
2022/05/28 08:28:30;;;;;;;0.27;0.27;;;17.80;99.90;;;;;;5036685;28;20212;-81
2022/05/28 08:30:56;;;;;;;0.20;0.20;;;17.60;99.90;;;;;;5055837;28;20189;-81
2022/05/28 08:33:22;;;;;;;0.20;0.20;;;18.30;99.90;;;;;;5036894;28;20588;-81
2022/05/28 08:35:50;;;;;;;0.20;0.20;;;18.60;99.90;;;;;;5054396;28;20193;-81
2022/05/28 08:38:18;;;;;;;0.20;0.20;;;18.20;99.90;;;;;;5039417;28;20216;-81
2022/05/28 08:40:56;;;;;;;0.20;0.20;;;17.80;99.90;;;;;;5055477;28;20217;-81
2022/05/28 08:43:26;;;;;;;0.20;0.20;;;17.40;99.90;;;;;;5037871;28;20186;-81
2022/05/28 08:45:52;;;;;;;0.10;0.10;;;17.00;99.90;;;;;;5053573;28;20256;-81
2022/05/28 08:48:22;;;;;;;1.17;0.70;;;16.80;99.90;;;;;;5036740;28;20756;-81
2022/05/28 08:50:51;;;;;;;0.10;0.10;;;16.50;99.90;;;;;;5072101;28;20189;-81
2022/05/28 08:53:21;;;;;;;0.37;0.27;;;17.00;99.90;;;;;;5053089;28;20653;-81
2022/05/28 08:55:50;;;;;;;0.23;0.23;;;16.80;99.90;;;;;;5055571;28;20189;-81
2022/05/28 08:58:20;;;;;;;0.20;0.20;;;16.90;99.90;;;;;;5051908;28;20212;-81
2022/05/28 09:01:06;;;;;;;0.90;0.90;;;17.30;99.90;;;;;;5050146;28;20227;-81
2022/05/28 09:03:49;;;;;;;0.30;0.30;;;17.40;99.90;;;;;;5036906;28;20679;-81
2022/05/28 09:06:14;;;;;;;4.07;0.73;;;18.00;99.90;;;;;;5054833;28;20181;-81
2022/05/28 09:08:48;;;;;;;0.23;0.23;;;17.80;99.90;;;;;;5051707;28;20234;-81
2022/05/28 09:11:19;;;;;;;0.30;0.30;;;17.70;99.90;;;;;;5035073;28;20524;-81
2022/05/28 09:13:48;;;;;;;0.20;0.20;;;17.80;99.90;;;;;;5046189;28;20196;-81
2022/05/28 09:16:22;;;;;;;0.20;0.20;;;17.70;99.90;;;;;;5033832;28;20713;-81
2022/05/28 09:18:50;;;;;;;0.40;0.40;;;18.00;99.90;;;;;;5049485;28;20209;-82
2022/05/28 09:21:17;;;;;;;0.30;0.30;;;18.00;99.90;;;;;;5050426;28;20196;-81
2022/05/28 09:23:58;;;;;;;0.20;0.20;;;17.80;99.90;;;;;;5037245;28;20734;-81
2022/05/28 09:26:32;;;;;;;0.87;0.50;;;18.20;99.90;;;;;;5068587;28;20569;-81
2022/05/28 09:29:00;;;;;;;0.30;0.30;;;18.40;99.90;;;;;;5030134;28;20255;-81
2022/05/28 09:31:47;;;;;;;0.30;0.20;;;19.10;99.90;;;;;;5036429;28;20173;-81
2022/05/28 09:34:30;;;;;;;0.20;0.20;;;19.00;99.90;;;;;;5051489;28;20271;-81
2022/05/28 09:37:30;;;;;;;0.10;0.10;;;18.60;99.90;;;;;;5055086;28;20189;-81
2022/05/28 09:40:13;;;;;;;0.93;0.40;;;18.00;99.90;;;;;;5054930;28;20215;-81
2022/05/28 09:43:09;;;;;;;0.40;0.40;;;16.90;99.90;;;;;;5036955;28;20186;-82
2022/05/28 09:45:57;;;;;;;0.10;0.10;;;16.30;99.90;;;;;;5036279;28;20255;-83
2022/05/28 09:48:26;;;;;;;0.67;0.30;;;16.70;99.90;;;;;;5037986;28;20271;-81
2022/05/28 09:50:52;;;;;;;0.20;0.20;;;16.50;99.90;;;;;;5053614;28;20194;-81
2022/05/28 09:56:21;;;;;;;8.10;0.40;;;16.90;99.90;;;;;;5055993;28;20191;-82
2022/05/28 09:58:47;;;;;;;0.20;0.20;;;16.90;99.90;;;;;;5051534;28;20308;-81
2022/05/28 10:01:22;;;;;;;0.10;0.10;;;17.00;99.90;;;;;;5053117;28;20223;-81
2022/05/28 10:06:48;;;;;;;4.90;0.43;;;17.90;99.90;;;;;;5053114;28;21253;-81
2022/05/28 10:09:34;;;;;;;0.10;0.10;;;17.90;99.90;;;;;;5036017;28;20224;-81
2022/05/28 10:12:07;;;;;;;0.10;0.10;;;18.00;99.90;;;;;;5053530;28;20232;-82
2022/05/28 10:14:33;;;;;;;0.63;0.50;;;18.50;99.90;;;;;;5038772;28;20319;-83
2022/05/28 10:17:04;;;;;;;0.10;0.10;;;18.10;99.90;;;;;;5035269;28;20646;-82
2022/05/28 10:19:42;;;;;;;0.73;0.30;;;17.60;99.90;;;;;;5054260;28;20208;-82
2022/05/28 10:22:15;;;;;;;0.20;0.20;;;17.60;99.90;;;;;;5034863;28;20211;-82
2022/05/28 10:25:03;;;;;;;0.17;0.17;;;17.80;99.90;;;;;;5055416;28;20204;-82
2022/05/28 10:27:34;;;;;;;0.10;0.10;;;18.20;99.90;;;;;;5054366;28;20676;-82
2022/05/28 10:30:03;;;;;;;1.07;0.40;;;18.50;99.90;;;;;;5054022;28;20587;-82
2022/05/28 10:32:48;;;;;;;0.20;0.20;;;18.90;99.90;;;;;;5052561;28;20591;-82
2022/05/28 10:35:26;;;;;;;0.20;0.20;;;18.60;99.90;;;;;;5066522;28;20193;-82
2022/05/28 10:37:53;;;;;;;0.77;0.57;;;19.20;99.90;;;;;;5052452;28;20209;-82
2022/05/28 10:40:24;;;;;;;0.20;0.20;;;19.70;99.90;;;;;;5036790;28;20515;-82
2022/05/28 10:42:57;;;;;;;0.43;0.37;;;19.70;99.90;;;;;;5037067;28;20191;-82
2022/05/28 10:45:24;;;;;;;0.20;0.20;;;18.50;99.90;;;;;;5070883;28;20229;-82
2022/05/28 10:48:17;;;;;;;0.10;0.10;;;18.70;99.90;;;;;;5054936;28;20214;-83
2022/05/28 10:50:48;;;;;;;0.30;0.30;;;17.90;99.90;;;;;;5052914;28;20219;-82
2022/05/28 10:53:20;;;;;;;0.40;0.40;;;17.40;99.90;;;;;;5039032;28;20181;-82
2022/05/28 10:56:15;;;;;;;0.30;0.30;;;17.80;99.90;;;;;;5039163;28;20185;-82
2022/05/28 10:59:02;;;;;;;0.20;0.20;;;18.30;99.90;;;;;;5071285;28;20270;-82
2022/05/28 11:01:49;;;;;;;0.30;0.23;;;18.70;99.90;;;;;;5038923;28;20188;-82
2022/05/28 11:04:33;;;;;;;0.30;0.30;;;18.60;99.90;;;;;;5071190;28;20199;-82
2022/05/28 11:07:09;;;;;;;0.30;0.30;;;18.90;99.90;;;;;;5055537;28;20276;-83
2022/05/28 11:09:47;;;;;;;0.20;0.20;;;18.70;99.90;;;;;;5053650;28;20239;-83
2022/05/28 11:12:24;;;;;;;1.70;0.40;;;18.30;99.90;;;;;;5071512;28;20183;-82
2022/05/28 11:15:04;;;;;;;0.20;0.20;;;18.40;99.90;;;;;;5039928;28;20687;-82
2022/05/28 11:17:59;;;;;;;0.20;0.20;;;18.90;99.90;;;;;;5054318;28;20190;-83
2022/05/28 11:20:50;;;;;;;0.50;0.50;;;19.20;99.90;;;;;;5030387;28;20220;-82
2022/05/28 11:23:45;;;;;;;1.60;0.30;;;19.40;99.90;;;;;;5054634;28;20192;-80
2022/05/28 11:26:47;;;;;;;0.80;0.80;;;19.40;99.90;;;;;;5032779;28;20775;-83
2022/05/28 11:29:52;;;;;;;0.20;0.20;;;19.50;99.90;;;;;;5014158;28;20588;-81
2022/05/28 11:32:22;;;;;;;0.30;0.30;;;19.80;99.90;;;;;;5051675;28;20177;-82
2022/05/28 11:34:56;;;;;;;0.23;0.23;;;19.30;99.90;;;;;;5038377;28;20553;-82
2022/05/28 11:37:29;;;;;;;1.40;0.50;;;18.00;99.90;;;;;;5053374;28;20800;-82
2022/05/28 11:40:05;;;;;;;0.20;0.20;;;18.00;99.90;;;;;;5035578;28;20821;-83
2022/05/28 11:42:57;;;;;;;0.20;0.20;;;18.10;99.90;;;;;;5036009;28;21178;-83
2022/05/28 11:45:53;;;;;;;0.10;0.10;;;18.50;99.90;;;;;;5067655;28;20206;-83
2022/05/28 11:51:37;;;;;;;0.30;0.30;;;19.20;99.90;;;;;;5052649;28;20758;-83
2022/05/28 11:54:46;;;;;;;0.20;0.20;;;19.30;99.90;;;;;;5035353;28;20188;-83
2022/05/28 11:57:29;;;;;;;0.20;0.20;;;19.30;99.90;;;;;;5010001;28;20287;-83
2022/05/28 11:59:57;;;;;;;0.37;0.37;;;19.50;99.90;;;;;;5037575;28;20181;-82
2022/05/28 12:02:33;;;;;;;0.20;0.20;;;19.10;99.90;;;;;;5036860;28;20688;-83
2022/05/28 12:04:59;;;;;;;0.17;0.17;;;19.20;99.90;;;;;;5052427;28;20204;-82
2022/05/28 12:07:27;;;;;;;0.20;0.20;;;19.20;99.90;;;;;;5053152;28;20208;-82
2022/05/28 12:09:53;;;;;;;0.20;0.20;;;19.80;99.90;;;;;;5054352;28;20432;-84
2022/05/28 12:12:27;;;;;;;0.10;0.10;;;19.70;99.90;;;;;;5037186;28;20536;-82
2022/05/28 12:15:34;;;;;;;0.20;0.20;;;19.70;99.90;;;;;;5038114;28;20871;-83
2022/05/28 12:18:24;;;;;;;0.20;0.20;;;19.50;99.90;;;;;;4975675;28;20223;-83
2022/05/28 12:21:00;;;;;;;0.17;0.17;;;19.00;99.90;;;;;;4975320;28;21245;-83
2022/05/28 12:23:33;;;;;;;0.37;0.30;;;18.40;99.90;;;;;;5017752;28;20549;-82
2022/05/28 12:26:01;;;;;;;0.20;0.20;;;18.60;99.90;;;;;;5055032;28;20211;-83
2022/05/28 12:28:43;;;;;;;0.43;0.30;;;18.80;99.90;;;;;;5038707;28;20197;-83
2022/05/28 12:31:09;;;;;;;0.50;0.50;;;19.50;99.90;;;;;;5055051;28;20172;-82
2022/05/28 12:33:51;;;;;;;0.17;0.17;;;20.10;99.90;;;;;;5054657;28;20183;-83
2022/05/28 12:36:17;;;;;;;0.50;0.33;;;20.20;99.90;;;;;;5036513;28;20198;-83
2022/05/28 12:39:03;;;;;;;0.50;0.30;;;19.30;99.90;;;;;;5038879;28;20222;-82
2022/05/28 12:41:33;;;;;;;0.23;0.23;;;18.90;99.90;;;;;;5056371;28;20205;-83
2022/05/28 12:44:01;;;;;;;0.20;0.20;;;17.90;99.90;;;;;;5037333;28;20227;-83
2022/05/28 12:46:43;;;;;;;0.70;0.30;;;18.10;99.90;;;;;;5055739;28;20193;-82
2022/05/28 12:49:22;;;;;;;1.70;0.50;;;18.30;99.90;;;;;;5054018;28;20209;-82
2022/05/28 12:52:05;;;;;;;0.23;0.23;;;18.40;99.90;;;;;;5039573;28;20205;-82
2022/05/28 12:54:34;;;;;;;0.10;0.10;;;18.20;99.90;;;;;;5056253;28;20270;-82
2022/05/28 12:57:25;;;;;;;0.20;0.20;;;18.10;99.90;;;;;;5039334;28;20623;-82
2022/05/28 13:00:05;;;;;;;0.23;0.23;;;18.30;99.90;;;;;;5058733;28;20192;-82
2022/05/28 13:02:43;;;;;;;0.37;0.37;;;18.70;99.90;;;;;;5053940;28;20219;-82
2022/05/28 13:05:35;;;;;;;0.20;0.20;;;19.40;99.90;;;;;;5056284;28;20224;-82
2022/05/28 13:08:14;;;;;;;0.20;0.20;;;19.00;99.90;;;;;;5056266;28;20214;-83
2022/05/28 13:10:55;;;;;;;1.80;0.30;;;19.10;99.90;;;;;;5054984;28;20239;-82
2022/05/28 13:14:03;;;;;;;0.30;0.30;;;19.60;99.90;;;;;;5056884;28;20577;-83
2022/05/28 13:16:44;;;;;;;0.13;0.13;;;19.40;99.90;;;;;;5057497;28;20215;-82
2022/05/28 13:19:36;;;;;;;0.30;0.30;;;18.70;99.90;;;;;;5057933;28;20247;-83
2022/05/28 13:22:19;;;;;;;0.10;0.10;;;18.90;99.90;;;;;;5058788;28;20186;-82